createdAt,value
2018-01-15T00:00:33.604Z,1.42
2018-01-15T00:03:08.910Z,1.43
2018-01-15T00:05:43.775Z,1.41
2018-01-15T00:08:18.789Z,1.36
2018-01-15T00:10:53.766Z,1.33
2018-01-15T00:13:28.763Z,1.31
2018-01-15T00:16:04.120Z,1.39
2018-01-15T00:18:39.071Z,1.40
2018-01-15T00:21:13.575Z,1.39
2018-01-15T00:23:48.803Z,1.43
2018-01-15T00:26:23.864Z,1.39
2018-01-15T00:28:58.624Z,1.36
2018-01-15T00:31:33.982Z,1.30
2018-01-15T00:34:08.858Z,1.27
2018-01-15T00:36:44.112Z,1.28
2018-01-15T00:39:18.848Z,1.35
2018-01-15T00:41:53.855Z,1.42
2018-01-15T00:44:28.847Z,1.36
2018-01-15T00:47:03.810Z,1.37
2018-01-15T00:49:39.165Z,1.38
2018-01-15T00:52:13.994Z,1.35
2018-01-15T00:54:49.261Z,1.32
2018-01-15T00:57:24.188Z,1.34
2018-01-15T00:59:59.237Z,1.33
2018-01-15T01:02:34.691Z,1.37
2018-01-15T01:05:09.896Z,1.43
2018-01-15T01:07:44.862Z,1.48
2018-01-15T01:10:19.946Z,1.45
2018-01-15T01:12:54.902Z,1.40
2018-01-15T01:15:30.000Z,1.39
2018-01-15T01:18:04.970Z,1.34
2018-01-15T01:20:40.018Z,1.33
2018-01-15T01:23:14.947Z,1.39
2018-01-15T01:25:49.871Z,1.39
2018-01-15T01:28:24.934Z,1.37
2018-01-15T01:30:59.899Z,1.37
2018-01-15T01:33:34.964Z,1.37
2018-01-15T01:36:09.530Z,1.35
2018-01-15T01:38:44.970Z,1.35
2018-01-15T01:41:20.063Z,1.35
2018-01-15T01:43:55.131Z,1.37
2018-01-15T01:46:29.956Z,1.42
2018-01-15T01:49:04.707Z,1.43
2018-01-15T01:51:39.891Z,1.49
2018-01-15T01:54:14.632Z,1.48
2018-01-15T01:56:49.996Z,1.48
2018-01-15T01:59:25.098Z,1.47
2018-01-15T02:02:00.166Z,1.45
2018-01-15T02:04:35.383Z,1.43
2018-01-15T02:07:10.023Z,1.46
2018-01-15T02:09:45.342Z,1.46
2018-01-15T02:12:20.342Z,1.42
2018-01-15T02:14:55.303Z,1.44
2018-01-15T02:17:30.459Z,1.42
2018-01-15T02:20:05.094Z,1.44
2018-01-15T02:22:40.366Z,1.47
2018-01-15T02:25:15.138Z,1.47
2018-01-15T02:27:49.777Z,1.47
2018-01-15T02:30:25.220Z,1.45
2018-01-15T02:33:00.064Z,1.42
2018-01-15T02:35:35.309Z,1.42
2018-01-15T02:38:09.874Z,1.47
2018-01-15T02:40:45.140Z,1.49
2018-01-15T02:43:20.152Z,1.49
2018-01-15T02:45:55.136Z,1.45
2018-01-15T02:48:30.094Z,1.37
2018-01-15T02:51:04.855Z,1.42
2018-01-15T02:53:40.062Z,1.55
2018-01-15T02:56:15.120Z,1.51
2018-01-15T02:58:50.130Z,1.46
2018-01-15T03:01:25.281Z,1.41
2018-01-15T03:04:00.276Z,1.37
2018-01-15T03:06:35.116Z,1.36
2018-01-15T03:09:10.199Z,1.37
2018-01-15T03:11:45.391Z,1.39
2018-01-15T03:14:20.315Z,1.43
2018-01-15T03:16:55.143Z,1.44
2018-01-15T03:19:30.292Z,1.45
2018-01-15T03:22:05.164Z,1.44
2018-01-15T03:24:40.502Z,1.44
2018-01-15T03:27:15.225Z,1.42
2018-01-15T03:29:50.170Z,1.41
2018-01-15T03:32:25.273Z,1.40
2018-01-15T03:35:00.248Z,1.40
2018-01-15T03:37:35.402Z,1.36
2018-01-15T03:40:10.279Z,1.41
2018-01-15T03:42:45.239Z,1.42
2018-01-15T03:45:20.274Z,1.49
2018-01-15T03:47:55.526Z,1.50
2018-01-15T03:50:30.803Z,1.49
2018-01-15T03:53:05.791Z,1.44
2018-01-15T03:55:41.349Z,1.46
2018-01-15T03:58:16.327Z,1.44
2018-01-15T04:00:51.382Z,1.39
2018-01-15T04:03:26.353Z,1.55
2018-01-15T04:06:01.315Z,1.51
2018-01-15T04:08:36.309Z,1.46
2018-01-15T04:11:11.598Z,1.45
2018-01-15T04:13:46.675Z,1.49
2018-01-15T04:16:22.134Z,1.46
2018-01-15T04:18:56.899Z,1.37
2018-01-15T04:21:32.820Z,1.34
2018-01-15T04:24:07.855Z,1.39
2018-01-15T04:26:42.877Z,1.42
2018-01-15T04:29:18.038Z,1.43
2018-01-15T04:31:53.465Z,1.40
2018-01-15T04:34:28.426Z,1.40
2018-01-15T04:37:03.222Z,1.41
2018-01-15T04:39:38.578Z,1.44
2018-01-15T04:42:13.495Z,1.41
2018-01-15T04:44:48.652Z,1.45
2018-01-15T04:47:23.611Z,1.47
2018-01-15T04:49:58.687Z,1.51
2018-01-15T04:52:33.932Z,1.51
2018-01-15T04:55:08.594Z,1.52
2018-01-15T04:57:43.959Z,1.58
2018-01-15T05:00:19.320Z,1.50
2018-01-15T05:02:53.911Z,1.55
2018-01-15T05:05:29.367Z,1.55
2018-01-15T05:08:04.428Z,1.60
2018-01-15T05:10:39.537Z,1.66
2018-01-15T05:13:14.463Z,1.63
2018-01-15T05:15:49.554Z,1.66
2018-01-15T05:18:24.674Z,1.70
2018-01-15T05:20:59.653Z,1.75
2018-01-15T05:23:34.883Z,1.77
2018-01-15T05:26:09.983Z,1.76
2018-01-15T05:28:44.775Z,1.81
2018-01-15T05:31:19.960Z,1.86
2018-01-15T05:33:55.343Z,1.89
2018-01-15T05:36:29.786Z,1.91
2018-01-15T05:39:04.227Z,1.95
2018-01-15T05:41:38.845Z,1.96
2018-01-15T05:44:13.624Z,1.99
2018-01-15T05:46:48.463Z,2.04
2018-01-15T05:49:23.622Z,2.02
2018-01-15T05:51:58.536Z,2.00
2018-01-15T05:54:33.590Z,1.99
2018-01-15T05:57:08.691Z,2.01
2018-01-15T05:59:43.830Z,2.03
2018-01-15T06:02:18.839Z,2.05
2018-01-15T06:04:53.713Z,2.09
2018-01-15T06:07:28.627Z,2.13
2018-01-15T06:10:03.417Z,2.17
2018-01-15T06:12:38.878Z,2.23
2018-01-15T06:15:13.581Z,2.25
2018-01-15T06:17:48.671Z,2.35
2018-01-15T06:20:23.736Z,2.38
2018-01-15T06:22:58.787Z,2.38
2018-01-15T06:25:33.860Z,2.37
2018-01-15T06:28:08.823Z,2.39
2018-01-15T06:30:44.191Z,2.42
2018-01-15T06:33:18.769Z,2.42
2018-01-15T06:35:54.055Z,2.46
2018-01-15T06:38:29.627Z,2.48
2018-01-15T06:41:04.135Z,2.50
2018-01-15T06:43:39.022Z,2.51
2018-01-15T06:46:14.123Z,2.53
2018-01-15T06:48:48.793Z,2.56
2018-01-15T06:51:23.638Z,2.58
2018-01-15T06:53:58.690Z,2.59
2018-01-15T06:56:33.255Z,2.61
2018-01-15T06:59:08.700Z,2.62
2018-01-15T07:01:43.849Z,2.60
2018-01-15T07:04:18.616Z,2.63
2018-01-15T07:06:53.385Z,2.65
2018-01-15T07:09:28.800Z,2.66
2018-01-15T07:12:03.911Z,2.66
2018-01-15T07:14:39.070Z,2.70
2018-01-15T07:17:13.880Z,2.72
2018-01-15T07:19:48.820Z,2.74
2018-01-15T07:22:23.948Z,2.69
2018-01-15T07:24:58.935Z,2.71
2018-01-15T07:27:34.104Z,2.71
2018-01-15T07:30:08.997Z,2.72
2018-01-15T07:32:44.368Z,2.71
2018-01-15T07:35:19.143Z,2.73
2018-01-15T07:37:54.308Z,2.79
2018-01-15T07:40:29.386Z,2.84
2018-01-15T07:43:04.833Z,2.87
2018-01-15T07:45:39.863Z,2.98
2018-01-15T07:48:15.402Z,3.04
2018-01-15T07:50:51.010Z,3.09
2018-01-15T07:53:25.575Z,3.18
2018-01-15T07:56:00.545Z,3.25
2018-01-15T07:58:35.075Z,3.29
2018-01-15T08:01:09.448Z,3.33
2018-01-15T08:03:44.331Z,3.42
2018-01-15T08:06:19.339Z,3.47
2018-01-15T08:08:54.466Z,3.45
2018-01-15T08:11:29.351Z,3.45
2018-01-15T08:14:04.517Z,3.51
2018-01-15T08:16:39.283Z,3.54
2018-01-15T08:19:14.274Z,3.55
2018-01-15T08:21:49.258Z,3.57
2018-01-15T08:24:24.126Z,3.62
2018-01-15T08:26:59.149Z,3.65
2018-01-15T08:29:34.239Z,3.68
2018-01-15T08:32:09.283Z,3.78
2018-01-15T08:34:44.455Z,3.86
2018-01-15T08:37:19.275Z,3.90
2018-01-15T08:39:54.206Z,3.96
2018-01-15T08:42:29.099Z,3.97
2018-01-15T08:45:03.752Z,4.02
2018-01-15T08:47:39.022Z,4.08
2018-01-15T08:50:13.990Z,4.11
2018-01-15T08:52:48.749Z,4.12
2018-01-15T08:55:24.106Z,4.16
2018-01-15T08:57:59.403Z,4.22
2018-01-15T09:00:34.596Z,4.33
2018-01-15T09:03:09.255Z,4.38
2018-01-15T09:05:44.571Z,4.41
2018-01-15T09:08:19.243Z,4.45
2018-01-15T09:10:54.428Z,4.45
2018-01-15T09:13:29.757Z,4.49
2018-01-15T09:16:04.423Z,4.49
2018-01-15T09:18:39.538Z,4.49
2018-01-15T09:21:14.247Z,4.49
2018-01-15T09:23:49.475Z,4.50
2018-01-15T09:26:24.368Z,4.51
2018-01-15T09:28:59.414Z,4.62
2018-01-15T09:31:34.683Z,4.61
2018-01-15T09:34:09.245Z,4.60
2018-01-15T09:36:43.992Z,4.62
2018-01-15T09:39:19.292Z,4.63
2018-01-15T09:41:54.279Z,4.69
2018-01-15T09:44:30.754Z,4.76
2018-01-15T09:47:05.412Z,4.80
2018-01-15T09:49:40.502Z,4.86
2018-01-15T09:52:15.570Z,4.91
2018-01-15T09:54:50.928Z,5.06
2018-01-15T09:57:25.640Z,5.09
2018-01-15T10:00:00.647Z,5.19
2018-01-15T10:02:35.671Z,5.21
2018-01-15T10:05:10.728Z,5.24
2018-01-15T10:07:45.785Z,5.28
2018-01-15T10:10:20.848Z,5.31
2018-01-15T10:12:56.299Z,5.32
2018-01-15T10:15:31.447Z,5.31
2018-01-15T10:18:06.429Z,5.34
2018-01-15T10:20:41.652Z,5.34
2018-01-15T10:23:16.387Z,5.40
2018-01-15T10:25:51.630Z,5.42
2018-01-15T10:28:26.440Z,5.50
2018-01-15T10:31:00.804Z,5.53
2018-01-15T10:33:35.859Z,5.56
2018-01-15T10:36:11.499Z,5.66
2018-01-15T10:38:46.373Z,5.68
2018-01-15T10:41:21.355Z,5.69
2018-01-15T10:43:56.382Z,5.70
2018-01-15T10:46:31.462Z,5.69
2018-01-15T10:49:06.463Z,5.72
2018-01-15T10:51:41.209Z,5.77
2018-01-15T10:54:16.318Z,5.86
2018-01-15T10:56:51.386Z,5.93
2018-01-15T10:59:26.161Z,5.96
2018-01-15T11:02:01.518Z,6.00
2018-01-15T11:04:36.586Z,5.99
2018-01-15T11:07:11.655Z,5.98
2018-01-15T11:09:46.819Z,5.99
2018-01-15T11:12:21.530Z,6.02
2018-01-15T11:14:56.643Z,6.04
2018-01-15T11:17:31.836Z,6.07
2018-01-15T11:20:07.307Z,6.14
2018-01-15T11:22:42.751Z,6.23
2018-01-15T11:25:17.638Z,6.28
2018-01-15T11:27:52.875Z,6.28
2018-01-15T11:30:27.574Z,6.36
2018-01-15T11:33:02.804Z,6.42
2018-01-15T11:35:38.066Z,6.55
2018-01-15T11:38:13.591Z,6.47
2018-01-15T11:40:48.870Z,6.52
2018-01-15T11:43:23.643Z,6.63
2018-01-15T11:45:58.635Z,6.66
2018-01-15T11:48:34.128Z,6.66
2018-01-15T11:51:08.790Z,6.68
2018-01-15T11:53:43.795Z,6.62
2018-01-15T11:56:18.876Z,6.63
2018-01-15T11:58:53.726Z,6.58
2018-01-15T12:01:28.803Z,6.61
2018-01-15T12:04:03.571Z,6.70
2018-01-15T12:06:38.437Z,6.80
2018-01-15T12:09:13.286Z,6.81
2018-01-15T12:11:48.710Z,6.84
2018-01-15T12:14:23.686Z,6.89
2018-01-15T12:16:58.924Z,6.90
2018-01-15T12:19:34.139Z,7.02
2018-01-15T12:22:08.733Z,7.02
2018-01-15T12:24:43.374Z,6.99
2018-01-15T12:27:18.087Z,7.01
2018-01-15T12:29:53.146Z,7.09
2018-01-15T12:32:28.125Z,7.14
2018-01-15T12:35:03.026Z,7.06
2018-01-15T12:37:38.413Z,7.05
2018-01-15T12:40:12.953Z,7.04
2018-01-15T12:42:48.803Z,6.97
2018-01-15T12:45:23.439Z,6.96
2018-01-15T12:47:58.799Z,7.06
2018-01-15T12:50:34.183Z,7.02
2018-01-15T12:53:08.900Z,6.94
2018-01-15T12:55:43.950Z,6.94
2018-01-15T12:58:18.833Z,6.91
2018-01-15T13:00:54.106Z,6.85
2018-01-15T13:03:28.511Z,6.84
2018-01-15T13:06:07.099Z,6.89
2018-01-15T13:11:41.207Z,6.79
2018-01-15T13:14:16.012Z,6.79
2018-01-15T13:16:51.010Z,6.76
2018-01-15T13:19:25.536Z,6.71
2018-01-15T13:22:00.050Z,6.76
2018-01-15T13:24:34.479Z,6.73
2018-01-15T13:27:09.295Z,6.70
2018-01-15T13:29:44.334Z,6.66
2018-01-15T13:32:18.907Z,6.64
2018-01-15T13:34:54.094Z,6.64
2018-01-15T13:37:28.757Z,6.67
2018-01-15T13:40:03.641Z,6.65
2018-01-15T13:42:39.126Z,6.56
2018-01-15T13:45:14.351Z,6.58
2018-01-15T13:47:49.375Z,6.55
2018-01-15T13:50:23.854Z,6.55
2018-01-15T13:52:58.258Z,6.55
2018-01-15T13:55:34.314Z,6.55
2018-01-15T13:58:08.959Z,6.57
2018-01-15T14:00:43.835Z,6.62
2018-01-15T14:03:18.962Z,6.65
2018-01-15T14:05:53.979Z,6.68
2018-01-15T14:08:28.971Z,6.73
2018-01-15T14:11:04.186Z,6.65
2018-01-15T14:13:38.964Z,6.65
2018-01-15T14:16:14.114Z,6.63
2018-01-15T14:18:49.197Z,6.65
2018-01-15T14:21:24.355Z,6.59
2018-01-15T14:23:59.901Z,6.60
2018-01-15T14:26:34.871Z,6.60
2018-01-15T14:29:09.990Z,6.52
2018-01-15T14:31:45.427Z,6.49
2018-01-15T14:34:20.159Z,6.47
2018-01-15T14:36:55.170Z,6.50
2018-01-15T14:39:30.509Z,6.50
2018-01-15T14:42:05.233Z,6.52
2018-01-15T14:44:40.011Z,6.52
2018-01-15T14:47:14.682Z,6.47
2018-01-15T14:49:49.518Z,6.38
2018-01-15T14:52:24.067Z,6.36
2018-01-15T14:54:59.051Z,6.37
2018-01-15T14:57:34.469Z,6.33
2018-01-15T15:00:09.636Z,6.28
2018-01-15T15:02:44.531Z,6.27
2018-01-15T15:05:20.106Z,6.26
2018-01-15T15:07:55.063Z,6.23
2018-01-15T15:10:30.018Z,6.16
2018-01-15T15:13:04.305Z,6.11
2018-01-15T15:15:39.161Z,6.03
2018-01-15T15:18:14.193Z,6.01
2018-01-15T15:20:49.434Z,6.03
2018-01-15T15:23:24.297Z,5.93
2018-01-15T15:25:59.482Z,5.84
2018-01-15T15:28:34.309Z,5.78
2018-01-15T15:31:09.570Z,5.77
2018-01-15T15:33:44.443Z,5.76
2018-01-15T15:36:19.222Z,5.69
2018-01-15T15:38:54.394Z,5.64
2018-01-15T15:41:29.213Z,5.65
2018-01-15T15:44:04.277Z,5.59
2018-01-15T15:46:39.489Z,5.61
2018-01-15T15:49:15.163Z,5.59
2018-01-15T15:51:49.570Z,5.53
2018-01-15T15:54:25.224Z,5.51
2018-01-15T15:57:00.234Z,5.49
2018-01-15T15:59:35.473Z,5.48
2018-01-15T16:02:10.544Z,5.43
2018-01-15T16:04:45.294Z,5.49
2018-01-15T16:07:20.686Z,5.49
2018-01-15T16:09:54.920Z,5.44
2018-01-15T16:12:29.214Z,5.40
2018-01-15T16:15:04.075Z,5.38
2018-01-15T16:17:39.485Z,5.32
2018-01-15T16:20:14.602Z,5.32
2018-01-15T16:22:57.814Z,5.26
2018-01-15T16:25:32.755Z,5.23
2018-01-15T16:28:08.206Z,5.23
2018-01-15T16:30:43.447Z,5.24
2018-01-15T16:33:18.598Z,5.19
2018-01-15T16:35:53.295Z,5.14
2018-01-15T16:38:28.489Z,5.10
2018-01-15T16:41:03.384Z,5.10
2018-01-15T16:43:38.796Z,5.07
2018-01-15T16:46:13.593Z,5.06
2018-01-15T16:48:48.565Z,5.01
2018-01-15T16:51:23.137Z,4.97
2018-01-15T16:53:58.656Z,4.83
2018-01-15T16:56:34.366Z,4.77
2018-01-15T16:59:09.138Z,4.72
2018-01-15T17:01:44.321Z,4.69
2018-01-15T17:04:19.312Z,4.65
2018-01-15T17:06:54.324Z,4.62
2018-01-15T17:09:28.830Z,4.60
2018-01-15T17:12:04.350Z,4.60
2018-01-15T17:14:39.697Z,4.61
2018-01-15T17:17:14.887Z,4.64
2018-01-15T17:19:49.718Z,4.68
2018-01-15T17:22:24.634Z,4.73
2018-01-15T17:24:59.630Z,4.77
2018-01-15T17:27:34.857Z,4.74
2018-01-15T17:30:09.382Z,4.78
2018-01-15T17:32:44.486Z,4.82
2018-01-15T17:35:18.924Z,4.83
2018-01-15T17:37:54.290Z,4.84
2018-01-15T17:40:29.573Z,4.86
2018-01-15T17:43:04.542Z,4.88
2018-01-15T17:45:39.842Z,4.89
2018-01-15T17:48:14.951Z,4.91
2018-01-15T17:50:50.727Z,4.94
2018-01-15T17:53:25.566Z,5.04
2018-01-15T17:56:00.806Z,5.11
2018-01-15T17:58:36.598Z,5.11
2018-01-15T18:01:11.707Z,5.15
2018-01-15T18:03:46.850Z,5.16
2018-01-15T18:06:21.486Z,5.19
2018-01-15T18:08:56.490Z,5.28
2018-01-15T18:11:31.590Z,5.31
2018-01-15T18:14:06.606Z,5.40
2018-01-15T18:16:40.974Z,5.43
2018-01-15T18:19:15.643Z,5.46
2018-01-15T18:21:50.869Z,5.53
2018-01-15T18:24:26.481Z,5.61
2018-01-15T18:27:01.031Z,5.64
2018-01-15T18:29:35.897Z,5.74
2018-01-15T18:32:11.628Z,5.78
2018-01-15T18:34:46.863Z,5.75
2018-01-15T18:37:21.796Z,5.81
2018-01-15T18:39:56.981Z,5.82
2018-01-15T18:42:31.599Z,5.85
2018-01-15T18:45:06.787Z,5.87
2018-01-15T18:47:41.842Z,5.84
2018-01-15T18:50:16.753Z,5.81
2018-01-15T18:52:51.827Z,5.79
2018-01-15T18:55:26.868Z,5.79
2018-01-15T18:58:01.598Z,5.79
2018-01-15T19:00:36.795Z,5.72
2018-01-15T19:03:11.731Z,5.71
2018-01-15T19:05:46.862Z,5.72
2018-01-15T19:08:21.733Z,5.65
2018-01-15T19:10:56.803Z,5.69
2018-01-15T19:13:31.257Z,5.63
2018-01-15T19:16:06.734Z,5.63
2018-01-15T19:18:41.914Z,5.63
2018-01-15T19:21:16.986Z,5.61
2018-01-15T19:23:51.855Z,5.62
2018-01-15T19:26:26.366Z,5.61
2018-01-15T19:29:00.588Z,5.62
2018-01-15T19:31:35.482Z,5.62
2018-01-15T19:34:09.727Z,5.62
2018-01-15T19:36:46.511Z,5.64
2018-01-15T19:39:22.880Z,5.59
2018-01-15T19:41:58.094Z,5.57
2018-01-15T19:44:39.194Z,5.62
2018-01-15T19:47:19.271Z,5.57
2018-01-15T19:50:00.245Z,5.56
2018-01-15T19:52:41.101Z,5.52
2018-01-15T19:55:21.572Z,5.54
2018-01-15T19:58:01.367Z,5.53
2018-01-15T20:00:41.255Z,5.52
2018-01-15T20:03:21.369Z,5.53
2018-01-15T20:09:02.686Z,5.55
2018-01-15T20:11:38.018Z,5.64
2018-01-15T20:14:12.646Z,5.66
2018-01-15T20:16:46.957Z,5.64
2018-01-15T20:19:21.990Z,5.66
2018-01-15T20:21:56.956Z,5.76
2018-01-15T20:24:32.181Z,5.79
2018-01-15T20:27:07.176Z,5.88
2018-01-15T20:29:42.187Z,5.93
2018-01-15T20:32:17.039Z,5.87
2018-01-15T20:34:52.008Z,5.86
2018-01-15T20:37:26.993Z,5.94
2018-01-15T20:40:01.831Z,5.96
2018-01-15T20:42:37.006Z,5.95
2018-01-15T20:45:11.983Z,5.95
2018-01-15T20:47:46.642Z,5.95
2018-01-15T20:50:21.546Z,6.03
2018-01-15T20:52:56.635Z,6.05
2018-01-15T20:55:31.971Z,6.12
2018-01-15T20:58:07.016Z,6.09
2018-01-15T21:00:42.332Z,6.10
2018-01-15T21:03:17.349Z,6.07
2018-01-15T21:05:52.363Z,6.10
2018-01-15T21:08:27.970Z,6.09
2018-01-15T21:11:03.098Z,6.11
2018-01-15T21:13:37.662Z,6.17
2018-01-15T21:16:13.014Z,6.24
2018-01-15T21:18:48.299Z,6.25
2018-01-15T21:21:22.913Z,6.25
2018-01-15T21:23:58.100Z,6.23
2018-01-15T21:26:33.145Z,6.34
2018-01-15T21:29:08.006Z,6.36
2018-01-15T21:31:43.205Z,6.32
2018-01-15T21:34:17.653Z,6.37
2018-01-15T21:36:52.951Z,6.35
2018-01-15T21:39:28.109Z,6.36
2018-01-15T21:42:02.987Z,6.38
2018-01-15T21:44:37.962Z,6.43
2018-01-15T21:47:13.136Z,6.46
2018-01-15T21:49:47.807Z,6.50
2018-01-15T21:52:23.279Z,6.50
2018-01-15T21:54:58.283Z,6.54
2018-01-15T21:57:33.314Z,6.54
2018-01-15T22:00:08.005Z,6.55
2018-01-15T22:02:43.612Z,6.55
2018-01-15T22:05:18.713Z,6.54
2018-01-15T22:07:53.843Z,6.55
2018-01-15T22:10:28.775Z,6.56
2018-01-15T22:13:04.210Z,6.58
2018-01-15T22:15:39.388Z,6.61
2018-01-15T22:18:15.354Z,6.59
2018-01-15T22:20:50.459Z,6.61
2018-01-15T22:23:25.471Z,6.68
2018-01-15T22:26:00.635Z,6.72
2018-01-15T22:28:36.638Z,6.74
2018-01-15T22:31:11.743Z,6.78
2018-01-15T22:33:46.688Z,6.81
2018-01-15T22:36:21.483Z,6.88
2018-01-15T22:38:56.437Z,6.89
2018-01-15T22:41:31.463Z,6.89
2018-01-15T22:44:06.353Z,6.93
2018-01-15T22:46:41.574Z,6.95
2018-01-15T22:49:16.342Z,6.93
2018-01-15T22:51:51.490Z,6.87
2018-01-15T22:54:26.350Z,6.88
2018-01-15T22:57:01.226Z,6.94
2018-01-15T22:59:35.913Z,7.04
2018-01-15T23:02:10.779Z,7.08
2018-01-15T23:04:45.594Z,7.11
2018-01-15T23:07:20.457Z,7.13
2018-01-15T23:09:55.487Z,7.20
2018-01-15T23:12:30.537Z,7.24
2018-01-15T23:15:05.198Z,7.26
2018-01-15T23:17:40.605Z,7.27
2018-01-15T23:20:15.553Z,7.29
2018-01-15T23:22:50.726Z,7.31
2018-01-15T23:25:25.534Z,7.33
2018-01-15T23:28:00.763Z,7.33
2018-01-15T23:30:35.750Z,7.35
2018-01-15T23:33:10.866Z,7.38
2018-01-15T23:35:45.831Z,7.39
2018-01-15T23:38:20.947Z,7.42
2018-01-15T23:40:55.976Z,7.43
2018-01-15T23:43:31.473Z,7.45
2018-01-15T23:46:06.366Z,7.48
2018-01-15T23:48:41.010Z,7.41
2018-01-15T23:51:16.043Z,7.42
2018-01-15T23:53:51.258Z,7.38
2018-01-15T23:56:25.933Z,7.38
2018-01-15T23:59:00.810Z,7.38
